KBJJ

Wayne County Airport

Wooster, Ohio, USA
METAR KBJJ 220456Z AUTO 08010KT 10SM -RA FEW050 SCT100 BKN120 19/18 A2981 RMK AO2 SLP086 P0002 T01940178 402670144
Observed Flight Rules
Jun-22 @ 04:56 UTC (44 minutes ago) Visual Flight Rules
Wind Visibility Clouds Conditions
80° at 10 knots 10 miles
  • Few at 5,000' AGL
  • Scattered at 10,000' AGL
  • Broken at 12,000' AGL
  • Light Rain
Temperatures Readings Precipitation
Current 19°C / 66°F
Dewpoint 18°C / 64°F
Humidity 94%
Altimeter 29.81" Hg
Pressure 1008.6 hPa
Elevation 343
Current Rain 0.02
METAR KBJJ 220456Z AUTO 08010KT 10SM -RA FEW050 SCT100 BKN120 19/18 A2981 RMK AO2 SLP086 P0002 T01940178 402670144
Observed Flight Rules
Jun-22 @ 04:56 UTC
(44 minutes ago)
VFR
Wind Visibility
80° at 10 knots 10 miles
Clouds
  • Few at 5,000' AGL
  • Scattered at 10,000' AGL
  • Broken at 12,000' AGL
Conditions
  • Light Rain
Temperature Dewpoint
19°C / 66°F 18°C / 64°F
Humidity Altimeter Pressure
94% 29.81" Hg 1008.6 hPa
Current Rain
0.02